createdAt,value
2023-05-25T07:05:39.729Z,101339.16
2023-05-25T07:08:06.853Z,101336.72
2023-05-25T07:10:38.741Z,101335.09
2023-05-25T07:13:05.834Z,101360.13
2023-05-25T07:15:32.919Z,101368.28
2023-05-25T07:18:00.083Z,101349.78
2023-05-25T07:20:27.805Z,101347.44
2023-05-25T07:22:55.252Z,101347.75
2023-05-25T07:25:22.449Z,101348.22
2023-05-25T07:27:51.136Z,101351.56
2023-05-25T07:30:18.573Z,101338.66
2023-05-25T07:32:45.616Z,101345.97
2023-05-25T07:35:12.827Z,101352.03
2023-05-25T07:37:39.845Z,101364.34
2023-05-25T07:40:07.479Z,101364.81
2023-05-25T07:42:35.701Z,101362.47
2023-05-25T07:45:03.123Z,101348.25
2023-05-25T07:47:30.192Z,101362.19
2023-05-25T07:49:57.371Z,101355.22
2023-05-25T07:52:24.407Z,101380.72
2023-05-25T07:54:51.695Z,101380.72
2023-05-25T07:57:21.752Z,101366.06
2023-05-25T07:59:48.819Z,101382.34
2023-05-25T08:02:16.012Z,101371.88
2023-05-25T08:04:43.836Z,101371.41
2023-05-25T08:07:11.748Z,101383.88
2023-05-25T08:09:39.177Z,101371.22
2023-05-25T08:12:26.965Z,101390.31
2023-05-25T08:14:54.534Z,101396.00
2023-05-25T08:17:22.808Z,101376.19
2023-05-25T08:19:50.060Z,101386.06
2023-05-25T08:22:17.210Z,101381.44
2023-05-25T08:24:44.736Z,101388.06
2023-05-25T08:27:29.126Z,101375.94
2023-05-25T08:29:56.446Z,101388.97
2023-05-25T08:32:29.684Z,101369.53
2023-05-25T08:34:57.321Z,101383.25
2023-05-25T08:37:25.210Z,101392.34
2023-05-25T08:39:52.384Z,101380.69
2023-05-25T08:42:19.719Z,101397.69
2023-05-25T08:44:46.967Z,101408.91
2023-05-25T08:47:17.299Z,101401.25
2023-05-25T08:49:46.074Z,101401.72
2023-05-25T08:52:21.752Z,101426.09
2023-05-25T08:54:53.390Z,101442.53
2023-05-25T08:57:41.107Z,101448.59
2023-05-25T09:00:12.532Z,101445.34
2023-05-25T09:02:55.207Z,101456.75
2023-05-25T09:05:23.928Z,101453.94
2023-05-25T09:07:55.157Z,101451.41
2023-05-25T09:10:24.372Z,101466.44
2023-05-25T09:12:52.823Z,101466.50
2023-05-25T09:15:20.369Z,101470.50
2023-05-25T09:17:48.272Z,101475.13
2023-05-25T09:20:16.764Z,101466.16
2023-05-25T09:22:44.569Z,101464.25
2023-05-25T09:25:12.156Z,101484.75
2023-05-25T09:27:39.622Z,101493.22
2023-05-25T09:30:07.649Z,101479.28
2023-05-25T09:32:35.819Z,101479.75
2023-05-25T09:35:10.711Z,101490.41
2023-05-25T09:37:38.213Z,101490.78
2023-05-25T09:40:07.195Z,101499.91
2023-05-25T09:42:34.307Z,101498.63
2023-05-25T09:45:02.283Z,101492.47
2023-05-25T09:47:29.882Z,101504.25
2023-05-25T09:50:09.927Z,101508.06
2023-05-25T09:52:37.142Z,101498.63
2023-05-25T09:55:04.578Z,101491.75
2023-05-25T09:57:31.857Z,101505.97
2023-05-25T09:59:59.322Z,101490.78
2023-05-25T10:02:27.083Z,101481.09
2023-05-25T10:04:54.398Z,101517.56
2023-05-25T10:07:21.886Z,101515.84
2023-05-25T10:19:22.730Z,101547.16
2023-05-25T10:22:05.829Z,101562.44
2023-05-25T10:24:56.570Z,101535.94
2023-05-25T10:27:27.405Z,101560.97
2023-05-25T10:29:57.014Z,101569.69
2023-05-25T10:32:25.228Z,101563.88
2023-05-25T10:34:53.839Z,101562.75
2023-05-25T10:37:23.267Z,101583.66
2023-05-25T10:39:50.836Z,101573.03
2023-05-25T10:42:19.477Z,101578.06
2023-05-25T10:44:47.670Z,101581.31
2023-05-25T10:47:16.725Z,101580.50
2023-05-25T10:50:02.865Z,101591.44
2023-05-25T10:52:31.750Z,101586.56
2023-05-25T10:55:02.158Z,101616.16
2023-05-25T10:57:29.538Z,101600.59
2023-05-25T11:00:06.672Z,101604.88
2023-05-25T11:02:53.924Z,101618.97
2023-05-25T11:05:27.066Z,101615.25
2023-05-25T11:07:55.324Z,101619.84
2023-05-25T11:10:49.964Z,101621.50
2023-05-25T11:13:32.433Z,101621.38
2023-05-25T11:16:22.287Z,101625.59
2023-05-25T11:19:01.359Z,101615.34
2023-05-25T11:21:28.375Z,101625.03
2023-05-25T11:23:57.792Z,101612.78
2023-05-25T11:26:27.771Z,101610.09
2023-05-25T11:28:56.295Z,101639.34
2023-05-25T11:31:37.552Z,101626.75
2023-05-25T11:34:06.513Z,101629.09
2023-05-25T11:36:36.538Z,101640.75
2023-05-25T11:39:11.510Z,101641.13
2023-05-25T11:41:51.754Z,101635.75
2023-05-25T11:44:30.158Z,101643.88
2023-05-25T11:47:02.047Z,101649.13
2023-05-25T11:49:29.721Z,101643.53
2023-05-25T11:51:59.673Z,101646.28
2023-05-25T11:54:30.966Z,101638.53
2023-05-25T11:57:00.181Z,101634.75
2023-05-25T11:59:30.591Z,101628.63
2023-05-25T12:02:10.100Z,101631.38
2023-05-25T12:04:45.993Z,101637.63
2023-05-25T12:07:15.338Z,101637.38
2023-05-25T12:09:49.496Z,101634.03
2023-05-25T12:12:23.976Z,101635.13
2023-05-25T12:14:51.748Z,101631.22
2023-05-25T12:17:21.327Z,101632.81
2023-05-25T12:19:48.991Z,101628.03
2023-05-25T12:22:16.627Z,101628.69
2023-05-25T12:24:54.654Z,101619.97
2023-05-25T12:27:24.895Z,101624.25
2023-05-25T12:29:53.510Z,101610.50
2023-05-25T12:32:20.688Z,101620.84
2023-05-25T12:34:47.843Z,101616.19
2023-05-25T12:37:22.677Z,101602.69
2023-05-25T12:39:50.916Z,101608.94
2023-05-25T12:42:18.426Z,101595.03
2023-05-25T12:44:47.004Z,101615.59
2023-05-25T12:47:20.152Z,101618.22
2023-05-25T12:49:51.654Z,101597.56
2023-05-25T12:52:38.666Z,101614.59
2023-05-25T12:55:28.333Z,101622.13
2023-05-25T12:57:56.157Z,101616.78
2023-05-25T13:00:28.193Z,101598.81
2023-05-25T13:02:55.798Z,101613.31
2023-05-25T13:05:25.952Z,101600.19
2023-05-25T13:07:59.342Z,101586.16
2023-05-25T13:10:31.142Z,101588.31
2023-05-25T13:12:59.792Z,101609.03
2023-05-25T13:15:29.778Z,101610.28
2023-05-25T13:18:06.249Z,101573.16
2023-05-25T13:20:34.945Z,101589.91
2023-05-25T13:23:06.377Z,101589.66
2023-05-25T13:25:33.454Z,101590.66
2023-05-25T13:28:01.443Z,101584.28
2023-05-25T13:30:28.839Z,101587.56
2023-05-25T13:32:55.975Z,101582.78
2023-05-25T13:35:37.627Z,101585.25
2023-05-25T13:38:05.361Z,101586.06
2023-05-25T13:40:32.696Z,101587.72
2023-05-25T13:42:59.889Z,101581.25
2023-05-25T13:45:27.056Z,101589.75
2023-05-25T13:47:54.144Z,101579.25
2023-05-25T13:50:21.610Z,101570.31
2023-05-25T13:52:57.510Z,101565.81
2023-05-25T13:55:24.692Z,101587.59
2023-05-25T13:57:54.589Z,101568.47
2023-05-25T14:00:22.165Z,101569.16
2023-05-25T14:02:49.425Z,101571.97
2023-05-25T14:05:16.677Z,101581.25
2023-05-25T14:07:44.858Z,101569.00
2023-05-25T14:10:12.129Z,101568.53
2023-05-25T14:12:39.362Z,101568.44
2023-05-25T14:15:07.617Z,101564.38
2023-05-25T14:17:34.849Z,101553.03
2023-05-25T14:20:05.459Z,101573.25
2023-05-25T14:22:32.878Z,101563.78
2023-05-25T14:25:03.085Z,101571.53
2023-05-25T14:27:30.288Z,101554.47
2023-05-25T14:30:05.518Z,101558.91
2023-05-25T14:32:32.669Z,101560.13
2023-05-25T14:35:00.011Z,101550.31
2023-05-25T14:37:27.165Z,101588.00
2023-05-25T14:39:54.352Z,101558.34
2023-05-25T14:42:22.011Z,101554.69
2023-05-25T14:44:49.134Z,101582.56
2023-05-25T14:47:16.483Z,101570.88
2023-05-25T14:49:43.995Z,101560.75
2023-05-25T14:52:11.132Z,101555.91
2023-05-25T14:54:44.284Z,101547.34
2023-05-25T14:57:12.595Z,101544.53
2023-05-25T14:59:39.779Z,101561.22
2023-05-25T15:02:06.993Z,101560.00
2023-05-25T15:04:34.121Z,101553.94
2023-05-25T15:07:01.327Z,101544.56
2023-05-25T15:09:28.560Z,101569.72
2023-05-25T15:11:55.647Z,101572.59
2023-05-25T15:14:22.777Z,101566.53
2023-05-25T15:16:49.995Z,101569.34
2023-05-25T15:19:17.821Z,101543.75
2023-05-25T15:21:45.185Z,101568.47
2023-05-25T15:24:16.893Z,101577.78
2023-05-25T15:26:44.349Z,101570.78
2023-05-25T15:29:11.489Z,101583.25
2023-05-25T15:31:38.700Z,101580.00
2023-05-25T15:34:05.863Z,101572.16
2023-05-25T15:36:33.442Z,101596.09
2023-05-25T15:39:00.622Z,101597.97
2023-05-25T15:41:27.728Z,101599.94
2023-05-25T15:44:01.325Z,101595.91
2023-05-25T15:46:28.854Z,101569.63
2023-05-25T15:48:56.394Z,101589.16
2023-05-25T15:51:23.607Z,101597.31
2023-05-25T15:53:50.860Z,101581.91
2023-05-25T15:56:18.189Z,101585.97
2023-05-25T15:58:49.180Z,101585.03
2023-05-25T16:01:16.490Z,101610.13
2023-05-25T16:03:43.764Z,101601.50
2023-05-25T16:06:11.661Z,101626.19
2023-05-25T16:08:38.795Z,101613.94
2023-05-25T16:11:06.824Z,101628.03
2023-05-25T16:13:34.225Z,101615.38
2023-05-25T16:16:01.429Z,101621.38
2023-05-25T16:18:28.620Z,101616.69
2023-05-25T16:20:58.397Z,101614.53
2023-05-25T16:23:25.678Z,101618.84
2023-05-25T16:25:57.165Z,101631.66
2023-05-25T16:28:26.081Z,101642.66
2023-05-25T16:30:53.872Z,101650.63
2023-05-25T16:33:21.172Z,101667.84
2023-05-25T16:35:48.726Z,101658.44
2023-05-25T16:38:16.456Z,101660.75
2023-05-25T16:40:43.571Z,101648.78
2023-05-25T16:43:13.335Z,101674.31
2023-05-25T16:45:41.713Z,101657.19
2023-05-25T16:48:09.213Z,101666.50
2023-05-25T16:50:37.159Z,101671.28
2023-05-25T16:53:04.247Z,101665.13
2023-05-25T16:55:33.804Z,101662.88
2023-05-25T16:58:01.043Z,101658.75
2023-05-25T17:00:28.317Z,101679.25
2023-05-25T17:02:55.510Z,101683.66
2023-05-25T17:05:22.796Z,101656.66
2023-05-25T17:07:50.354Z,101680.66
2023-05-25T17:10:17.668Z,101668.34
2023-05-25T17:12:44.877Z,101668.34
2023-05-25T17:15:14.705Z,101676.50
2023-05-25T17:17:44.707Z,101687.00
2023-05-25T17:20:15.409Z,101693.53
2023-05-25T17:22:42.719Z,101679.63
2023-05-25T17:25:13.504Z,101682.88
2023-05-25T17:27:41.317Z,101695.84
2023-05-25T17:30:09.242Z,101677.84
2023-05-25T17:32:36.597Z,101679.50
2023-05-25T17:35:04.129Z,101685.84
2023-05-25T17:37:42.056Z,101686.66
2023-05-25T17:40:09.579Z,101693.06
2023-05-25T17:42:45.879Z,101696.66
2023-05-25T17:46:23.559Z,101706.69
2023-05-25T17:53:45.814Z,101735.72
2023-05-25T17:56:22.769Z,101705.56
2023-05-25T17:58:55.592Z,101717.97
2023-05-25T18:01:25.514Z,101724.16
2023-05-25T18:04:01.735Z,101718.69
2023-05-25T18:06:37.595Z,101721.06
2023-05-25T18:09:09.975Z,101726.41
2023-05-25T18:11:40.466Z,101726.25
2023-05-25T18:14:08.150Z,101732.69
2023-05-25T18:16:45.275Z,101745.66
2023-05-25T18:19:16.185Z,101744.78
2023-05-25T18:21:47.582Z,101752.28
2023-05-25T18:24:28.067Z,101739.69
2023-05-25T18:27:01.476Z,101763.19
2023-05-25T18:29:28.886Z,101746.44
2023-05-25T18:31:59.928Z,101738.56
2023-05-25T18:34:29.572Z,101723.97
2023-05-25T18:37:02.679Z,101747.53
2023-05-25T18:39:30.177Z,101765.31
2023-05-25T18:41:57.485Z,101767.69
2023-05-25T18:44:28.694Z,101753.72
2023-05-25T18:46:58.508Z,101754.47
2023-05-25T18:49:27.731Z,101770.13
2023-05-25T18:51:55.329Z,101755.72
2023-05-25T18:54:22.607Z,101782.22
2023-05-25T18:56:49.969Z,101766.06
2023-05-25T18:59:17.474Z,101783.09
2023-05-25T19:01:44.967Z,101777.56
2023-05-25T19:04:18.291Z,101790.19
2023-05-25T19:06:45.826Z,101776.59
2023-05-25T19:09:13.211Z,101771.59
2023-05-25T19:11:43.499Z,101769.06
2023-05-25T19:14:10.752Z,101784.03
2023-05-25T19:16:38.140Z,101782.66
2023-05-25T19:19:07.374Z,101776.25
2023-05-25T19:21:37.061Z,101807.13
2023-05-25T19:24:07.507Z,101802.13
2023-05-25T19:26:37.106Z,101815.94
2023-05-25T19:29:06.846Z,101821.91
2023-05-25T19:31:36.859Z,101811.16
2023-05-25T19:34:05.962Z,101822.50
2023-05-25T19:36:37.418Z,101803.97
2023-05-25T19:39:05.358Z,101801.78
2023-05-25T19:41:32.778Z,101819.06
2023-05-25T19:44:04.505Z,101829.34
2023-05-25T19:46:32.116Z,101822.81
2023-05-25T19:49:00.977Z,101807.44
2023-05-25T19:51:30.568Z,101810.00
2023-05-25T19:53:58.320Z,101815.53
2023-05-25T19:56:34.455Z,101812.97
2023-05-25T19:59:06.928Z,101822.75
2023-05-25T20:01:39.576Z,101806.91
2023-05-25T20:04:07.961Z,101840.34
2023-05-25T20:06:37.586Z,101825.63
2023-05-25T20:09:32.008Z,101821.28
2023-05-25T20:12:04.238Z,101816.28
2023-05-25T20:14:31.563Z,101851.72
2023-05-25T20:16:58.837Z,101855.22
2023-05-25T20:19:26.098Z,101837.47
2023-05-25T20:21:53.581Z,101842.81
2023-05-25T20:24:25.136Z,101838.03
2023-05-25T20:27:23.932Z,101820.75
2023-05-25T20:30:44.122Z,101850.09
2023-05-25T20:33:11.457Z,101842.16
2023-05-25T21:10:07.455Z,101853.06
2023-05-25T21:12:35.335Z,101860.44
2023-05-25T21:15:02.446Z,101855.50
2023-05-25T21:17:29.854Z,101868.97
2023-05-25T21:28:28.500Z,101868.97
